createdAt,value
2023-02-28T00:02:09.241Z,75.14
2023-02-28T00:04:37.349Z,75.02
2023-02-28T00:07:06.341Z,76.20
2023-02-28T00:09:33.320Z,74.96
2023-02-28T00:12:11.170Z,75.04
2023-02-28T00:14:40.955Z,74.55
2023-02-28T00:17:07.942Z,75.18
2023-02-28T00:19:34.866Z,75.73
2023-02-28T00:22:01.985Z,75.54
2023-02-28T00:24:28.968Z,74.85
2023-02-28T00:26:55.889Z,75.79
2023-02-28T00:29:23.112Z,75.94
2023-02-28T00:31:53.170Z,76.07
2023-02-28T00:34:22.454Z,76.06
2023-02-28T00:36:52.371Z,75.46
2023-02-28T00:39:19.608Z,76.51
2023-02-28T00:41:46.509Z,76.61
2023-02-28T00:44:17.474Z,76.51
2023-02-28T00:46:44.495Z,76.12
2023-02-28T00:49:11.554Z,75.09
2023-02-28T00:51:38.514Z,76.61
2023-02-28T00:54:05.622Z,76.84
2023-02-28T00:56:32.540Z,76.80
2023-02-28T00:59:04.000Z,77.12
2023-02-28T01:01:31.513Z,77.13
2023-02-28T01:04:01.278Z,77.56
2023-02-28T01:06:28.179Z,76.93
2023-02-28T01:08:55.258Z,77.45
2023-02-28T01:11:24.452Z,77.57
2023-02-28T01:13:53.774Z,77.66
2023-02-28T01:16:23.168Z,77.41
2023-02-28T01:18:50.286Z,76.86
2023-02-28T01:21:20.656Z,77.79
2023-02-28T01:23:48.811Z,78.38
2023-02-28T01:26:18.326Z,78.84
2023-02-28T01:28:45.869Z,78.25
2023-02-28T01:31:13.338Z,78.35
2023-02-28T01:33:41.098Z,78.60
2023-02-28T01:36:17.661Z,78.40
2023-02-28T01:38:47.895Z,78.04
2023-02-28T01:41:23.124Z,78.83
2023-02-28T01:43:49.997Z,79.83
2023-02-28T01:46:17.533Z,79.63
2023-02-28T01:48:51.897Z,79.36
2023-02-28T01:51:35.387Z,78.80
2023-02-28T01:54:14.727Z,79.08
2023-02-28T01:56:50.436Z,79.44
2023-02-28T01:59:45.977Z,78.39
2023-02-28T02:02:18.104Z,79.54
2023-02-28T02:05:02.646Z,79.23
2023-02-28T02:07:37.744Z,80.88
2023-02-28T02:10:56.230Z,80.56
2023-02-28T02:14:00.737Z,80.64
2023-02-28T02:16:36.778Z,81.10
2023-02-28T02:19:57.263Z,80.65
2023-02-28T02:22:58.156Z,80.78
2023-02-28T02:25:44.423Z,80.85
2023-02-28T02:28:41.167Z,81.63
2023-02-28T02:31:30.163Z,81.17
2023-02-28T02:34:29.466Z,81.35
2023-02-28T02:37:08.269Z,81.82
2023-02-28T02:40:17.991Z,81.92
2023-02-28T02:43:06.184Z,82.29
2023-02-28T02:45:47.243Z,81.69
2023-02-28T02:48:18.823Z,80.75
2023-02-28T02:50:59.832Z,80.63
2023-02-28T02:53:37.832Z,80.17
2023-02-28T02:56:06.765Z,79.62
2023-02-28T02:58:42.984Z,80.29
2023-02-28T03:01:17.219Z,80.26
2023-02-28T03:03:47.260Z,79.95
2023-02-28T03:06:16.349Z,79.31
2023-02-28T03:08:43.330Z,79.58
2023-02-28T03:11:17.982Z,78.97
2023-02-28T03:14:17.267Z,78.95
2023-02-28T03:17:04.977Z,79.25
2023-02-28T03:20:00.825Z,80.52
2023-02-28T03:22:40.983Z,79.43
2023-02-28T03:25:52.300Z,80.08
2023-02-28T03:29:06.552Z,80.63
2023-02-28T03:31:48.542Z,79.69
2023-02-28T03:34:25.330Z,80.94
2023-02-28T03:36:59.038Z,80.40
2023-02-28T03:40:09.608Z,80.09
2023-02-28T03:42:39.290Z,80.68
2023-02-28T03:45:15.046Z,80.72
2023-02-28T03:47:55.954Z,80.59
2023-02-28T03:50:25.312Z,80.50
2023-02-28T03:53:02.518Z,80.29
2023-02-28T03:55:43.451Z,80.60
2023-02-28T03:58:43.601Z,80.05
2023-02-28T04:01:18.960Z,79.99
2023-02-28T04:03:46.035Z,80.42
2023-02-28T04:06:26.048Z,80.18
2023-02-28T04:08:55.602Z,79.49
2023-02-28T04:11:37.553Z,80.15
2023-02-28T04:14:06.553Z,80.46
2023-02-28T04:16:36.040Z,79.44
2023-02-28T04:19:09.016Z,79.50
2023-02-28T04:21:47.032Z,79.20
2023-02-28T04:24:23.666Z,79.56
2023-02-28T04:26:54.812Z,79.92
2023-02-28T04:29:35.557Z,79.61
2023-02-28T04:32:03.605Z,79.24
2023-02-28T04:34:35.285Z,78.96
2023-02-28T04:37:13.169Z,79.01
2023-02-28T04:39:44.359Z,78.50
2023-02-28T04:42:14.607Z,79.20
2023-02-28T04:44:41.616Z,79.32
2023-02-28T04:47:08.610Z,78.53
2023-02-28T04:49:35.643Z,79.07
2023-02-28T04:52:05.698Z,78.66
2023-02-28T04:54:32.702Z,78.46
2023-02-28T04:57:02.539Z,79.15
2023-02-28T04:59:29.505Z,79.11
2023-02-28T05:01:56.464Z,79.68
2023-02-28T05:04:23.433Z,79.42
2023-02-28T05:06:56.275Z,79.50
2023-02-28T05:09:23.204Z,79.81
2023-02-28T05:11:54.990Z,79.64
2023-02-28T05:14:26.803Z,78.66
2023-02-28T05:16:55.719Z,79.93
2023-02-28T05:19:22.651Z,79.02
2023-02-28T05:21:54.221Z,78.86
2023-02-28T05:24:23.755Z,79.08
2023-02-28T05:26:54.158Z,79.13
2023-02-28T05:29:23.938Z,78.16
2023-02-28T05:31:53.557Z,78.04
2023-02-28T05:34:22.799Z,78.42
2023-02-28T05:36:49.784Z,76.62
2023-02-28T05:39:19.280Z,78.09
2023-02-28T05:41:48.344Z,78.78
2023-02-28T05:44:18.675Z,79.05
2023-02-28T05:46:45.649Z,78.10
2023-02-28T05:49:12.741Z,79.18
2023-02-28T05:51:40.907Z,79.69
2023-02-28T05:54:08.532Z,78.78
2023-02-28T05:56:36.398Z,79.14
2023-02-28T05:59:05.400Z,79.12
2023-02-28T06:01:50.668Z,78.94
2023-02-28T06:04:31.885Z,79.81
2023-02-28T06:07:02.697Z,79.56
2023-02-28T06:09:32.293Z,80.17
2023-02-28T06:12:06.364Z,80.17
2023-02-28T06:14:37.381Z,79.80
2023-02-28T06:17:05.521Z,79.95
2023-02-28T06:19:35.344Z,79.43
2023-02-28T06:22:05.481Z,79.51
2023-02-28T06:24:34.688Z,77.74
2023-02-28T06:27:05.922Z,78.55
2023-02-28T06:29:34.354Z,76.53
2023-02-28T06:32:01.554Z,74.33
2023-02-28T06:34:31.014Z,72.08
2023-02-28T06:36:57.978Z,69.55
2023-02-28T06:39:24.933Z,67.32
2023-02-28T06:41:55.687Z,64.72
2023-02-28T06:44:23.560Z,63.60
2023-02-28T06:46:50.767Z,60.11
2023-02-28T06:49:18.598Z,58.05
2023-02-28T06:51:46.326Z,55.73
2023-02-28T06:54:13.924Z,54.31
2023-02-28T06:56:41.149Z,53.43
2023-02-28T06:59:08.049Z,52.01
2023-02-28T07:01:37.542Z,50.58
2023-02-28T07:04:08.768Z,48.07
2023-02-28T07:06:35.746Z,47.17
2023-02-28T07:09:02.950Z,46.33
2023-02-28T07:11:32.468Z,44.38
2023-02-28T07:14:02.161Z,43.52
2023-02-28T07:16:29.194Z,41.62
2023-02-28T07:18:56.685Z,41.62
2023-02-28T07:21:23.852Z,40.12
2023-02-28T07:23:50.907Z,41.42
2023-02-28T07:26:24.581Z,41.90
2023-02-28T07:28:51.716Z,40.09
2023-02-28T07:31:21.358Z,39.80
2023-02-28T07:33:48.302Z,39.76
2023-02-28T07:36:19.414Z,37.34
2023-02-28T07:38:50.870Z,36.74
2023-02-28T07:41:28.775Z,36.91
2023-02-28T07:44:00.575Z,34.75
2023-02-28T07:46:30.552Z,33.55
2023-02-28T07:49:00.467Z,34.00
2023-02-28T07:51:27.641Z,34.46
2023-02-28T07:53:54.825Z,34.42
2023-02-28T07:56:21.752Z,33.04
2023-02-28T07:58:51.763Z,32.58
2023-02-28T08:01:20.915Z,32.72
2023-02-28T08:03:48.390Z,33.15
2023-02-28T08:06:24.552Z,33.02
2023-02-28T08:08:51.977Z,32.46
2023-02-28T08:11:19.711Z,30.46
2023-02-28T08:13:47.216Z,30.32
2023-02-28T08:16:18.963Z,30.23
2023-02-28T08:18:46.192Z,29.14
2023-02-28T08:21:15.609Z,30.89
2023-02-28T08:23:45.043Z,32.10
2023-02-28T08:26:12.271Z,30.66
2023-02-28T08:28:39.185Z,29.94
2023-02-28T08:31:12.730Z,28.43
2023-02-28T08:33:40.136Z,29.10
2023-02-28T08:36:09.174Z,27.11
2023-02-28T08:38:37.618Z,26.91
2023-02-28T08:41:08.522Z,26.66
2023-02-28T08:43:38.685Z,26.33
2023-02-28T08:46:09.073Z,27.32
2023-02-28T08:48:38.876Z,26.40
2023-02-28T08:51:13.735Z,26.10
2023-02-28T08:53:41.428Z,24.57
2023-02-28T08:56:17.691Z,24.44
2023-02-28T08:58:49.440Z,23.71
2023-02-28T09:01:19.425Z,21.86
2023-02-28T09:03:50.681Z,22.09
2023-02-28T09:06:23.339Z,22.20
2023-02-28T09:08:50.860Z,23.27
2023-02-28T09:11:19.714Z,23.12
2023-02-28T09:13:50.054Z,22.18
2023-02-28T09:16:20.466Z,22.58
2023-02-28T09:18:49.990Z,21.24
2023-02-28T09:21:19.763Z,20.34
2023-02-28T09:23:49.855Z,21.29
2023-02-28T09:26:21.554Z,19.53
2023-02-28T09:28:48.451Z,19.27
2023-02-28T09:31:23.976Z,19.64
2023-02-28T09:34:00.218Z,20.16
2023-02-28T09:36:43.338Z,19.18
2023-02-28T09:39:16.224Z,19.57
2023-02-28T09:41:51.051Z,18.60
2023-02-28T09:44:45.279Z,17.28
2023-02-28T09:47:31.190Z,16.08
2023-02-28T09:50:07.278Z,15.99
2023-02-28T09:52:35.036Z,16.83
2023-02-28T09:55:15.963Z,15.96
2023-02-28T09:57:43.867Z,15.74
2023-02-28T10:00:25.981Z,14.98
2023-02-28T10:03:41.239Z,13.88
2023-02-28T10:06:40.164Z,14.26
2023-02-28T10:09:27.149Z,12.64
2023-02-28T10:12:05.152Z,14.00
2023-02-28T10:14:35.168Z,14.06
2023-02-28T10:17:14.444Z,13.77
2023-02-28T10:20:09.012Z,14.05
2023-02-28T10:23:17.723Z,13.89
2023-02-28T10:25:55.292Z,14.20
2023-02-28T10:28:22.175Z,13.70
2023-02-28T10:30:53.072Z,14.16
2023-02-28T10:33:40.582Z,13.27
2023-02-28T10:36:13.231Z,13.37
2023-02-28T10:38:42.775Z,13.95
2023-02-28T10:41:35.830Z,15.11
2023-02-28T10:44:38.242Z,16.08
2023-02-28T10:47:07.909Z,16.20
2023-02-28T10:49:35.686Z,17.07
2023-02-28T10:52:02.780Z,16.22
2023-02-28T10:54:36.469Z,14.89
2023-02-28T10:57:27.349Z,15.06
2023-02-28T11:00:26.856Z,15.20
2023-02-28T11:02:56.915Z,15.26
2023-02-28T11:05:37.071Z,15.38
2023-02-28T11:08:13.024Z,16.03
2023-02-28T11:10:40.806Z,15.32
2023-02-28T11:13:07.740Z,15.81
2023-02-28T11:15:38.021Z,15.56
2023-02-28T11:18:13.894Z,15.15
2023-02-28T11:20:41.624Z,15.88
2023-02-28T11:23:15.284Z,15.23
2023-02-28T11:25:57.967Z,14.42
2023-02-28T11:28:33.726Z,16.40
2023-02-28T11:31:12.815Z,15.55
2023-02-28T11:33:51.309Z,13.98
2023-02-28T11:36:29.448Z,13.19
2023-02-28T11:39:04.032Z,14.17
2023-02-28T11:42:12.708Z,15.84
2023-02-28T11:45:12.024Z,16.11
2023-02-28T11:48:28.858Z,17.26
2023-02-28T11:51:25.428Z,15.53
2023-02-28T11:54:19.941Z,13.57
2023-02-28T11:57:21.229Z,13.82
2023-02-28T12:00:32.662Z,13.97
2023-02-28T12:03:29.800Z,12.83
2023-02-28T12:06:25.569Z,13.30
2023-02-28T12:09:29.339Z,12.30
2023-02-28T12:12:48.994Z,12.34
2023-02-28T12:16:16.190Z,12.41
2023-02-28T12:18:58.566Z,14.03
2023-02-28T12:22:06.828Z,13.50
2023-02-28T12:25:21.714Z,13.36
2023-02-28T12:27:54.204Z,13.23
2023-02-28T12:30:30.001Z,13.31
2023-02-28T12:33:10.882Z,13.44
2023-02-28T12:36:00.794Z,12.74
2023-02-28T12:38:35.797Z,12.87
2023-02-28T12:41:31.162Z,12.59
2023-02-28T12:44:18.758Z,15.06
2023-02-28T12:46:53.130Z,14.04
2023-02-28T12:49:42.975Z,13.44
2023-02-28T12:52:17.577Z,13.11
2023-02-28T12:54:59.316Z,12.99
2023-02-28T12:57:40.935Z,13.11
2023-02-28T13:00:14.890Z,13.36
2023-02-28T13:03:05.005Z,13.40
2023-02-28T13:06:22.244Z,13.37
2023-02-28T13:09:15.579Z,13.38
2023-02-28T13:11:55.170Z,14.57
2023-02-28T13:14:36.730Z,13.71
2023-02-28T13:17:06.479Z,14.06
2023-02-28T13:19:40.480Z,13.74
2023-02-28T13:22:38.859Z,14.11
2023-02-28T13:25:24.223Z,13.61
2023-02-28T13:27:57.765Z,13.73
2023-02-28T13:30:56.912Z,13.99
2023-02-28T13:33:34.333Z,14.58
2023-02-28T13:36:23.752Z,14.72
2023-02-28T13:39:03.217Z,15.44
2023-02-28T13:41:30.534Z,14.32
2023-02-28T13:44:00.425Z,15.12
2023-02-28T13:46:27.361Z,14.40
2023-02-28T13:48:57.540Z,14.88
2023-02-28T13:51:50.818Z,15.07
2023-02-28T13:55:17.021Z,15.61
2023-02-28T13:58:46.021Z,15.74
2023-02-28T14:01:59.127Z,16.07
2023-02-28T14:04:52.498Z,15.79
2023-02-28T14:07:36.319Z,15.95
2023-02-28T14:10:10.823Z,16.38
2023-02-28T14:13:14.549Z,16.12
2023-02-28T14:16:23.992Z,16.44
2023-02-28T14:19:27.898Z,17.48
2023-02-28T14:22:22.303Z,16.62
2023-02-28T14:25:11.963Z,16.50
2023-02-28T14:27:44.734Z,16.70
2023-02-28T14:30:58.366Z,16.79
2023-02-28T14:33:47.584Z,17.42
2023-02-28T14:36:32.028Z,17.58
2023-02-28T14:39:15.512Z,18.19
2023-02-28T14:41:44.933Z,18.03
2023-02-28T14:44:28.887Z,18.08
2023-02-28T14:47:06.707Z,17.22
2023-02-28T14:49:48.626Z,18.13
2023-02-28T14:52:30.622Z,18.48
2023-02-28T14:55:04.810Z,18.37
2023-02-28T14:57:35.800Z,19.30
2023-02-28T15:00:17.550Z,19.30
2023-02-28T15:02:44.885Z,19.45
2023-02-28T15:05:17.444Z,19.85
2023-02-28T15:07:50.281Z,20.17
2023-02-28T15:10:24.168Z,20.31
2023-02-28T15:12:57.441Z,20.05
2023-02-28T15:16:01.096Z,19.93
2023-02-28T15:18:51.875Z,19.88
2023-02-28T15:21:45.768Z,20.72
2023-02-28T15:24:25.180Z,21.13
2023-02-28T15:27:00.797Z,20.64
2023-02-28T15:29:30.582Z,20.96
2023-02-28T15:32:08.276Z,21.48
2023-02-28T15:34:45.879Z,21.47
2023-02-28T15:37:34.452Z,21.60
2023-02-28T15:40:26.316Z,21.56
2023-02-28T15:43:25.869Z,22.07
2023-02-28T15:46:11.760Z,22.25
2023-02-28T15:49:01.315Z,23.83
2023-02-28T15:51:38.471Z,24.99
2023-02-28T15:54:15.104Z,26.29
2023-02-28T15:56:48.626Z,27.76
2023-02-28T15:59:23.168Z,27.74
2023-02-28T16:02:25.306Z,28.42
2023-02-28T16:05:18.434Z,29.45
2023-02-28T16:07:49.807Z,28.45
2023-02-28T16:10:16.810Z,29.55
2023-02-28T16:12:45.851Z,30.50
2023-02-28T16:15:29.954Z,30.99
2023-02-28T16:17:59.509Z,31.73
2023-02-28T16:20:30.467Z,32.01
2023-02-28T16:23:03.829Z,32.37
2023-02-28T16:25:39.943Z,32.29
2023-02-28T16:28:24.567Z,32.69
2023-02-28T16:30:57.318Z,32.85
2023-02-28T16:33:24.227Z,33.16
2023-02-28T16:35:51.164Z,33.13
2023-02-28T16:38:20.773Z,33.21
2023-02-28T16:40:52.074Z,33.74
2023-02-28T16:43:26.207Z,34.23
2023-02-28T16:46:04.073Z,34.42
2023-02-28T16:48:33.074Z,34.98
2023-02-28T16:51:00.111Z,34.95
2023-02-28T16:53:29.131Z,34.99
2023-02-28T16:55:58.505Z,35.34
2023-02-28T16:58:28.448Z,35.14
2023-02-28T17:01:00.557Z,35.48
2023-02-28T17:03:33.458Z,35.45
2023-02-28T17:06:04.116Z,35.67
2023-02-28T17:08:33.082Z,35.55
2023-02-28T17:11:00.835Z,36.39
2023-02-28T17:13:30.964Z,36.47
2023-02-28T17:15:57.900Z,36.78
2023-02-28T17:18:24.981Z,38.25
2023-02-28T17:20:51.813Z,38.90
2023-02-28T17:23:21.393Z,38.72
2023-02-28T17:25:57.566Z,38.85
2023-02-28T17:28:25.314Z,39.14
2023-02-28T17:30:52.452Z,39.06
2023-02-28T17:33:19.404Z,38.07
2023-02-28T17:35:46.410Z,38.79
2023-02-28T17:38:18.789Z,40.08
2023-02-28T17:40:45.993Z,42.68
2023-02-28T17:43:12.970Z,43.08
2023-02-28T17:45:45.037Z,45.48
2023-02-28T17:48:13.603Z,45.52
2023-02-28T17:50:40.520Z,43.61
2023-02-28T17:53:07.507Z,43.47
2023-02-28T17:55:35.565Z,44.07
2023-02-28T17:58:05.551Z,45.55
2023-02-28T18:00:35.474Z,45.83
2023-02-28T18:03:02.457Z,43.99
2023-02-28T18:05:29.458Z,47.62
2023-02-28T18:07:57.145Z,48.08
2023-02-28T18:10:24.107Z,47.79
2023-02-28T18:12:54.997Z,47.34
2023-02-28T18:15:24.998Z,47.33
2023-02-28T18:17:52.355Z,45.95
2023-02-28T18:20:19.737Z,47.93
2023-02-28T18:22:49.146Z,47.98
2023-02-28T18:25:20.748Z,48.93
2023-02-28T18:27:59.388Z,48.01
2023-02-28T18:30:32.891Z,50.14
2023-02-28T18:33:02.886Z,50.27
2023-02-28T18:35:36.264Z,48.63
2023-02-28T18:38:19.289Z,49.56
2023-02-28T18:41:15.453Z,49.60
2023-02-28T18:43:42.590Z,49.34
2023-02-28T18:46:17.321Z,49.77
2023-02-28T18:48:47.181Z,49.75
2023-02-28T18:51:27.868Z,48.55
2023-02-28T18:53:59.708Z,49.15
2023-02-28T18:56:30.104Z,52.11
2023-02-28T18:58:57.272Z,83.19
2023-02-28T19:01:30.016Z,63.97
2023-02-28T19:04:06.521Z,56.71
2023-02-28T19:06:34.423Z,53.45
2023-02-28T19:09:04.102Z,53.79
2023-02-28T19:11:36.569Z,53.70
2023-02-28T19:14:06.308Z,54.88
2023-02-28T19:16:34.423Z,56.05
2023-02-28T19:19:06.024Z,54.71
2023-02-28T19:21:36.630Z,54.75
2023-02-28T19:24:04.831Z,55.99
2023-02-28T19:26:31.997Z,55.20
2023-02-28T19:29:05.034Z,54.00
2023-02-28T19:31:32.421Z,54.23
2023-02-28T19:33:59.575Z,53.84
2023-02-28T19:36:31.942Z,54.00
2023-02-28T19:39:01.040Z,53.19
2023-02-28T19:41:34.894Z,53.82
2023-02-28T19:44:01.900Z,54.94
2023-02-28T19:46:30.996Z,55.17
2023-02-28T19:48:58.145Z,55.99
2023-02-28T19:51:28.652Z,56.64
2023-02-28T19:53:55.676Z,57.97
2023-02-28T19:56:22.654Z,58.29
2023-02-28T19:58:49.542Z,58.59
2023-02-28T20:01:19.333Z,58.42
2023-02-28T20:03:50.772Z,59.77
2023-02-28T20:06:20.248Z,58.80
2023-02-28T20:08:49.488Z,59.28
2023-02-28T20:11:19.958Z,60.01
2023-02-28T20:13:46.969Z,58.93
2023-02-28T20:16:17.796Z,58.60
2023-02-28T20:18:51.187Z,59.53
2023-02-28T20:21:20.728Z,60.03
2023-02-28T20:23:48.739Z,59.89
2023-02-28T20:26:17.122Z,60.06
2023-02-28T20:28:44.299Z,60.51
2023-02-28T20:31:19.686Z,60.05
2023-02-28T20:33:48.156Z,59.74
2023-02-28T20:36:16.105Z,59.85
2023-02-28T20:38:47.931Z,60.80
2023-02-28T20:41:14.931Z,61.67
2023-02-28T20:43:42.471Z,62.34
2023-02-28T20:46:14.316Z,62.15
2023-02-28T20:48:41.384Z,60.55
2023-02-28T20:51:08.589Z,59.60
2023-02-28T20:53:36.607Z,60.44
2023-02-28T20:56:16.201Z,60.12
2023-02-28T20:58:48.489Z,61.00
2023-02-28T21:01:26.001Z,63.22
2023-02-28T21:03:56.655Z,63.24
2023-02-28T21:06:27.254Z,63.41
2023-02-28T21:08:54.827Z,62.92
2023-02-28T21:11:32.854Z,62.71
2023-02-28T21:14:10.501Z,62.95
2023-02-28T21:16:38.359Z,63.85
2023-02-28T21:19:07.855Z,63.43
2023-02-28T21:21:43.900Z,63.59
2023-02-28T21:24:15.892Z,63.96
2023-02-28T21:26:44.742Z,64.96
2023-02-28T21:29:15.002Z,65.31
2023-02-28T21:31:47.108Z,64.94
2023-02-28T21:34:16.544Z,64.51
2023-02-28T21:36:47.647Z,65.26
2023-02-28T21:39:25.825Z,64.61
2023-02-28T21:41:53.882Z,64.40
2023-02-28T21:44:22.626Z,64.86
2023-02-28T21:46:56.881Z,65.70
2023-02-28T21:49:24.244Z,65.37
2023-02-28T21:51:53.734Z,64.91
2023-02-28T21:54:20.702Z,66.11
2023-02-28T21:56:47.712Z,66.10
2023-02-28T21:59:14.613Z,66.72
2023-02-28T22:01:44.204Z,66.58
2023-02-28T22:04:21.099Z,66.42
2023-02-28T22:06:59.079Z,66.78
2023-02-28T22:09:26.407Z,66.35
2023-02-28T22:11:53.387Z,66.26
2023-02-28T22:14:20.414Z,67.16
2023-02-28T22:16:53.612Z,67.53
2023-02-28T22:19:22.738Z,67.36
2023-02-28T22:21:50.363Z,68.08
2023-02-28T22:24:20.477Z,68.61
2023-02-28T22:26:50.474Z,68.11
2023-02-28T22:29:17.508Z,68.06
2023-02-28T22:31:49.302Z,68.82
2023-02-28T22:34:19.670Z,68.88
2023-02-28T22:36:46.598Z,69.57
2023-02-28T22:39:13.680Z,70.51
2023-02-28T22:41:45.480Z,71.06
2023-02-28T22:44:12.310Z,71.64
2023-02-28T22:46:39.445Z,71.99
2023-02-28T22:49:09.094Z,72.17
2023-02-28T22:51:39.630Z,71.70
2023-02-28T22:54:06.595Z,72.27
2023-02-28T22:56:36.555Z,71.95
2023-02-28T22:59:05.800Z,71.93
2023-02-28T23:01:34.936Z,70.77
2023-02-28T23:04:02.976Z,71.60
2023-02-28T23:06:42.123Z,70.79
2023-02-28T23:09:23.320Z,70.65
2023-02-28T23:11:53.758Z,70.84
2023-02-28T23:14:23.836Z,71.39
2023-02-28T23:16:54.872Z,71.95
2023-02-28T23:19:27.776Z,71.92
2023-02-28T23:21:57.783Z,72.16
2023-02-28T23:24:30.616Z,72.54
2023-02-28T23:27:01.609Z,71.13
2023-02-28T23:29:28.860Z,71.47
2023-02-28T23:31:59.011Z,72.06
2023-02-28T23:34:30.491Z,71.64
2023-02-28T23:37:01.744Z,71.51
2023-02-28T23:39:30.385Z,71.18
2023-02-28T23:41:58.158Z,71.42
2023-02-28T23:44:25.750Z,71.37
2023-02-28T23:46:55.713Z,70.56
2023-02-28T23:49:25.773Z,70.89
2023-02-28T23:51:54.421Z,71.00
2023-02-28T23:54:24.215Z,71.02
2023-02-28T23:56:54.035Z,71.57
2023-02-28T23:59:20.933Z,71.33
